sensor_id;sensor_type;location;lat;lon;timestamp;P1;durP1;ratioP1;P2;durP2;ratioP2
65156;SDS011;52745;49.794;18.258;2022-11-28T00:03:49;63.67;;;28.27;;
65156;SDS011;52745;49.794;18.258;2022-11-28T00:06:16;63.20;;;28.17;;
65156;SDS011;52745;49.794;18.258;2022-11-28T00:08:43;61.63;;;28.38;;
65156;SDS011;52745;49.794;18.258;2022-11-28T00:11:11;63.33;;;28.48;;
65156;SDS011;52745;49.794;18.258;2022-11-28T00:13:39;66.45;;;28.48;;
65156;SDS011;52745;49.794;18.258;2022-11-28T00:16:07;71.50;;;29.35;;
65156;SDS011;52745;49.794;18.258;2022-11-28T00:18:34;65.28;;;27.92;;
65156;SDS011;52745;49.794;18.258;2022-11-28T00:21:05;66.13;;;28.30;;
65156;SDS011;52745;49.794;18.258;2022-11-28T00:23:36;69.47;;;28.33;;
65156;SDS011;52745;49.794;18.258;2022-11-28T00:26:04;69.50;;;28.60;;
65156;SDS011;52745;49.794;18.258;2022-11-28T00:28:37;57.10;;;26.08;;
65156;SDS011;52745;49.794;18.258;2022-11-28T00:31:04;67.95;;;27.83;;
65156;SDS011;52745;49.794;18.258;2022-11-28T00:33:31;66.63;;;27.70;;
65156;SDS011;52745;49.794;18.258;2022-11-28T00:35:59;71.53;;;30.20;;
65156;SDS011;52745;49.794;18.258;2022-11-28T00:38:27;64.75;;;28.33;;
65156;SDS011;52745;49.794;18.258;2022-11-28T00:41:01;68.47;;;29.17;;
65156;SDS011;52745;49.794;18.258;2022-11-28T00:43:31;64.95;;;27.88;;
65156;SDS011;52745;49.794;18.258;2022-11-28T00:45:59;63.80;;;28.98;;
65156;SDS011;52745;49.794;18.258;2022-11-28T00:48:25;69.18;;;29.15;;
65156;SDS011;52745;49.794;18.258;2022-11-28T00:50:53;61.67;;;28.63;;
65156;SDS011;52745;49.794;18.258;2022-11-28T00:53:20;67.18;;;29.38;;
65156;SDS011;52745;49.794;18.258;2022-11-28T00:55:47;68.68;;;28.40;;
65156;SDS011;52745;49.794;18.258;2022-11-28T00:58:13;70.22;;;30.55;;
65156;SDS011;52745;49.794;18.258;2022-11-28T01:00:40;69.78;;;29.30;;
65156;SDS011;52745;49.794;18.258;2022-11-28T01:03:06;67.15;;;28.80;;
65156;SDS011;52745;49.794;18.258;2022-11-28T01:05:38;72.60;;;29.40;;
65156;SDS011;52745;49.794;18.258;2022-11-28T01:08:05;67.35;;;28.00;;
65156;SDS011;52745;49.794;18.258;2022-11-28T01:10:31;63.38;;;28.00;;
65156;SDS011;52745;49.794;18.258;2022-11-28T01:12:58;67.95;;;28.45;;
65156;SDS011;52745;49.794;18.258;2022-11-28T01:15:25;62.63;;;25.65;;
65156;SDS011;52745;49.794;18.258;2022-11-28T01:17:51;63.42;;;27.60;;
65156;SDS011;52745;49.794;18.258;2022-11-28T01:20:18;59.65;;;25.92;;
65156;SDS011;52745;49.794;18.258;2022-11-28T01:22:44;64.95;;;27.33;;
65156;SDS011;52745;49.794;18.258;2022-11-28T01:25:11;76.82;;;35.00;;
65156;SDS011;52745;49.794;18.258;2022-11-28T01:27:37;62.88;;;25.63;;
65156;SDS011;52745;49.794;18.258;2022-11-28T01:30:04;68.13;;;28.05;;
65156;SDS011;52745;49.794;18.258;2022-11-28T01:32:31;58.75;;;25.88;;
65156;SDS011;52745;49.794;18.258;2022-11-28T01:34:57;56.33;;;24.63;;
65156;SDS011;52745;49.794;18.258;2022-11-28T01:37:24;55.42;;;23.42;;
65156;SDS011;52745;49.794;18.258;2022-11-28T01:39:50;57.47;;;22.35;;
65156;SDS011;52745;49.794;18.258;2022-11-28T01:42:17;51.00;;;22.00;;
65156;SDS011;52745;49.794;18.258;2022-11-28T01:47:16;51.58;;;20.77;;
65156;SDS011;52745;49.794;18.258;2022-11-28T01:49:45;49.78;;;21.48;;
65156;SDS011;52745;49.794;18.258;2022-11-28T01:52:15;50.80;;;21.35;;
65156;SDS011;52745;49.794;18.258;2022-11-28T01:54:45;49.17;;;21.05;;
65156;SDS011;52745;49.794;18.258;2022-11-28T01:57:15;45.75;;;19.77;;
65156;SDS011;52745;49.794;18.258;2022-11-28T02:00:08;47.45;;;21.45;;
65156;SDS011;52745;49.794;18.258;2022-11-28T02:05:16;42.10;;;17.70;;
65156;SDS011;52745;49.794;18.258;2022-11-28T02:07:44;48.45;;;19.48;;
65156;SDS011;52745;49.794;18.258;2022-11-28T02:10:14;47.75;;;20.48;;
65156;SDS011;52745;49.794;18.258;2022-11-28T02:21:17;62.10;;;23.83;;
65156;SDS011;52745;49.794;18.258;2022-11-28T02:42:53;60.25;;;25.10;;
65156;SDS011;52745;49.794;18.258;2022-11-28T02:48:03;59.88;;;24.83;;
65156;SDS011;52745;49.794;18.258;2022-11-28T02:50:39;57.92;;;23.85;;
65156;SDS011;52745;49.794;18.258;2022-11-28T02:53:13;61.30;;;24.63;;
65156;SDS011;52745;49.794;18.258;2022-11-28T02:55:43;60.72;;;24.20;;
65156;SDS011;52745;49.794;18.258;2022-11-28T02:58:10;67.28;;;26.42;;
65156;SDS011;52745;49.794;18.258;2022-11-28T03:00:38;63.67;;;26.15;;
65156;SDS011;52745;49.794;18.258;2022-11-28T03:03:16;73.88;;;27.45;;
65156;SDS011;52745;49.794;18.258;2022-11-28T03:05:50;66.82;;;25.15;;
65156;SDS011;52745;49.794;18.258;2022-11-28T03:11:30;55.20;;;23.73;;
65156;SDS011;52745;49.794;18.258;2022-11-28T03:30:50;55.53;;;23.80;;
65156;SDS011;52745;49.794;18.258;2022-11-28T03:33:28;59.15;;;24.60;;
65156;SDS011;52745;49.794;18.258;2022-11-28T03:36:01;60.47;;;25.23;;
65156;SDS011;52745;49.794;18.258;2022-11-28T03:38:42;55.28;;;23.88;;
65156;SDS011;52745;49.794;18.258;2022-11-28T03:41:18;61.45;;;25.45;;
65156;SDS011;52745;49.794;18.258;2022-11-28T03:43:51;53.85;;;23.35;;
65156;SDS011;52745;49.794;18.258;2022-11-28T03:46:22;59.78;;;24.20;;
65156;SDS011;52745;49.794;18.258;2022-11-28T03:48:53;58.80;;;25.35;;
65156;SDS011;52745;49.794;18.258;2022-11-28T03:51:26;60.30;;;24.73;;
65156;SDS011;52745;49.794;18.258;2022-11-28T03:54:00;58.45;;;24.70;;
65156;SDS011;52745;49.794;18.258;2022-11-28T04:02:01;58.13;;;23.92;;
65156;SDS011;52745;49.794;18.258;2022-11-28T04:04:38;59.38;;;23.63;;
65156;SDS011;52745;49.794;18.258;2022-11-28T04:07:25;55.10;;;22.33;;
65156;SDS011;52745;49.794;18.258;2022-11-28T04:10:01;56.75;;;24.10;;
65156;SDS011;52745;49.794;18.258;2022-11-28T04:15:30;52.83;;;23.40;;
65156;SDS011;52745;49.794;18.258;2022-11-28T04:17:59;56.17;;;24.40;;
65156;SDS011;52745;49.794;18.258;2022-11-28T04:20:37;59.45;;;24.15;;
65156;SDS011;52745;49.794;18.258;2022-11-28T04:23:10;53.05;;;22.33;;
65156;SDS011;52745;49.794;18.258;2022-11-28T04:25:41;58.92;;;23.90;;
65156;SDS011;52745;49.794;18.258;2022-11-28T04:28:18;55.38;;;22.83;;
65156;SDS011;52745;49.794;18.258;2022-11-28T04:30:49;56.72;;;22.55;;
65156;SDS011;52745;49.794;18.258;2022-11-28T04:33:18;56.67;;;23.60;;
65156;SDS011;52745;49.794;18.258;2022-11-28T04:35:50;59.15;;;24.48;;
65156;SDS011;52745;49.794;18.258;2022-11-28T04:38:20;53.70;;;22.98;;
65156;SDS011;52745;49.794;18.258;2022-11-28T04:40:53;57.90;;;23.85;;
65156;SDS011;52745;49.794;18.258;2022-11-28T04:43:27;82.47;;;31.85;;
65156;SDS011;52745;49.794;18.258;2022-11-28T04:45:59;63.50;;;28.58;;
65156;SDS011;52745;49.794;18.258;2022-11-28T04:48:31;60.05;;;23.45;;
65156;SDS011;52745;49.794;18.258;2022-11-28T04:53:44;54.42;;;23.65;;
65156;SDS011;52745;49.794;18.258;2022-11-28T04:56:12;54.70;;;22.30;;
65156;SDS011;52745;49.794;18.258;2022-11-28T04:58:46;53.28;;;22.38;;
65156;SDS011;52745;49.794;18.258;2022-11-28T05:01:17;54.50;;;24.08;;
65156;SDS011;52745;49.794;18.258;2022-11-28T05:03:49;52.78;;;22.40;;
65156;SDS011;52745;49.794;18.258;2022-11-28T05:06:26;52.85;;;22.85;;
65156;SDS011;52745;49.794;18.258;2022-11-28T05:08:55;98.88;;;42.38;;
65156;SDS011;52745;49.794;18.258;2022-11-28T05:11:22;65.00;;;25.75;;
65156;SDS011;52745;49.794;18.258;2022-11-28T05:13:48;57.58;;;23.08;;
65156;SDS011;52745;49.794;18.258;2022-11-28T05:16:15;52.15;;;23.40;;
65156;SDS011;52745;49.794;18.258;2022-11-28T05:18:42;57.53;;;23.33;;
65156;SDS011;52745;49.794;18.258;2022-11-28T05:21:09;51.50;;;22.23;;
65156;SDS011;52745;49.794;18.258;2022-11-28T05:23:37;52.92;;;22.67;;
65156;SDS011;52745;49.794;18.258;2022-11-28T05:26:08;55.80;;;21.73;;
65156;SDS011;52745;49.794;18.258;2022-11-28T05:28:37;48.47;;;22.52;;
65156;SDS011;52745;49.794;18.258;2022-11-28T05:31:03;47.10;;;21.75;;
65156;SDS011;52745;49.794;18.258;2022-11-28T05:33:31;46.80;;;21.25;;
65156;SDS011;52745;49.794;18.258;2022-11-28T05:36:10;46.90;;;21.73;;
65156;SDS011;52745;49.794;18.258;2022-11-28T05:38:38;118.47;;;51.58;;
65156;SDS011;52745;49.794;18.258;2022-11-28T05:41:04;60.20;;;25.45;;
65156;SDS011;52745;49.794;18.258;2022-11-28T05:43:31;54.75;;;22.75;;
65156;SDS011;52745;49.794;18.258;2022-11-28T05:46:03;52.15;;;22.23;;
65156;SDS011;52745;49.794;18.258;2022-11-28T05:48:30;49.70;;;21.42;;
65156;SDS011;52745;49.794;18.258;2022-11-28T05:50:56;51.80;;;22.65;;
65156;SDS011;52745;49.794;18.258;2022-11-28T05:53:23;51.05;;;23.73;;
65156;SDS011;52745;49.794;18.258;2022-11-28T05:55:50;58.47;;;26.70;;
65156;SDS011;52745;49.794;18.258;2022-11-28T05:58:17;62.78;;;25.52;;
65156;SDS011;52745;49.794;18.258;2022-11-28T06:00:43;56.58;;;25.00;;
65156;SDS011;52745;49.794;18.258;2022-11-28T06:03:10;53.45;;;23.20;;
65156;SDS011;52745;49.794;18.258;2022-11-28T06:05:40;56.78;;;23.02;;
65156;SDS011;52745;49.794;18.258;2022-11-28T06:08:11;57.80;;;24.23;;
65156;SDS011;52745;49.794;18.258;2022-11-28T06:10:39;52.45;;;23.13;;
65156;SDS011;52745;49.794;18.258;2022-11-28T06:13:06;50.67;;;24.23;;
65156;SDS011;52745;49.794;18.258;2022-11-28T06:15:33;52.10;;;23.20;;
65156;SDS011;52745;49.794;18.258;2022-11-28T06:18:00;52.60;;;22.20;;
65156;SDS011;52745;49.794;18.258;2022-11-28T06:20:27;56.08;;;23.48;;
65156;SDS011;52745;49.794;18.258;2022-11-28T06:22:53;52.17;;;22.40;;
65156;SDS011;52745;49.794;18.258;2022-11-28T06:25:20;51.53;;;22.60;;
65156;SDS011;52745;49.794;18.258;2022-11-28T06:27:46;52.47;;;21.75;;
65156;SDS011;52745;49.794;18.258;2022-11-28T06:30:13;49.95;;;23.33;;
65156;SDS011;52745;49.794;18.258;2022-11-28T06:32:39;55.67;;;24.20;;
65156;SDS011;52745;49.794;18.258;2022-11-28T06:35:06;66.25;;;29.80;;
65156;SDS011;52745;49.794;18.258;2022-11-28T06:37:33;59.45;;;27.45;;
65156;SDS011;52745;49.794;18.258;2022-11-28T06:39:59;60.20;;;25.30;;
65156;SDS011;52745;49.794;18.258;2022-11-28T06:42:26;57.17;;;24.98;;
65156;SDS011;52745;49.794;18.258;2022-11-28T06:44:52;48.45;;;22.50;;
65156;SDS011;52745;49.794;18.258;2022-11-28T06:47:19;56.17;;;23.80;;
65156;SDS011;52745;49.794;18.258;2022-11-28T06:49:46;49.33;;;23.25;;
65156;SDS011;52745;49.794;18.258;2022-11-28T06:52:14;47.45;;;22.33;;
65156;SDS011;52745;49.794;18.258;2022-11-28T06:54:40;49.67;;;22.67;;
65156;SDS011;52745;49.794;18.258;2022-11-28T06:57:07;44.83;;;22.58;;
65156;SDS011;52745;49.794;18.258;2022-11-28T06:59:33;59.20;;;23.23;;
65156;SDS011;52745;49.794;18.258;2022-11-28T07:02:00;51.50;;;22.45;;
65156;SDS011;52745;49.794;18.258;2022-11-28T07:04:28;53.33;;;22.38;;
65156;SDS011;52745;49.794;18.258;2022-11-28T07:06:55;53.47;;;22.52;;
65156;SDS011;52745;49.794;18.258;2022-11-28T07:09:21;51.05;;;22.33;;
65156;SDS011;52745;49.794;18.258;2022-11-28T07:11:48;54.67;;;22.40;;
65156;SDS011;52745;49.794;18.258;2022-11-28T07:14:14;50.38;;;22.90;;
65156;SDS011;52745;49.794;18.258;2022-11-28T07:16:41;55.92;;;23.20;;
65156;SDS011;52745;49.794;18.258;2022-11-28T07:19:09;54.10;;;23.27;;
65156;SDS011;52745;49.794;18.258;2022-11-28T07:21:37;53.28;;;22.25;;
65156;SDS011;52745;49.794;18.258;2022-11-28T07:24:03;47.25;;;22.83;;
65156;SDS011;52745;49.794;18.258;2022-11-28T07:26:30;52.10;;;21.88;;
65156;SDS011;52745;49.794;18.258;2022-11-28T07:28:56;53.10;;;22.90;;
65156;SDS011;52745;49.794;18.258;2022-11-28T07:31:25;46.25;;;22.83;;
65156;SDS011;52745;49.794;18.258;2022-11-28T07:33:53;47.60;;;22.55;;
65156;SDS011;52745;49.794;18.258;2022-11-28T07:36:21;51.22;;;21.75;;
65156;SDS011;52745;49.794;18.258;2022-11-28T07:38:50;51.70;;;22.30;;
65156;SDS011;52745;49.794;18.258;2022-11-28T07:41:19;49.85;;;22.95;;
65156;SDS011;52745;49.794;18.258;2022-11-28T07:43:47;46.13;;;21.15;;
65156;SDS011;52745;49.794;18.258;2022-11-28T07:46:15;38.72;;;19.58;;
65156;SDS011;52745;49.794;18.258;2022-11-28T07:48:43;46.05;;;20.75;;
65156;SDS011;52745;49.794;18.258;2022-11-28T07:51:12;46.63;;;21.13;;
65156;SDS011;52745;49.794;18.258;2022-11-28T07:53:40;46.55;;;20.42;;
65156;SDS011;52745;49.794;18.258;2022-11-28T07:56:08;43.22;;;19.27;;
65156;SDS011;52745;49.794;18.258;2022-11-28T07:58:39;45.47;;;20.08;;
65156;SDS011;52745;49.794;18.258;2022-11-28T08:01:16;41.15;;;18.52;;
65156;SDS011;52745;49.794;18.258;2022-11-28T08:03:48;40.75;;;18.80;;
65156;SDS011;52745;49.794;18.258;2022-11-28T08:06:17;41.85;;;17.42;;
65156;SDS011;52745;49.794;18.258;2022-11-28T08:08:45;42.75;;;19.55;;
65156;SDS011;52745;49.794;18.258;2022-11-28T08:11:13;46.00;;;20.00;;
65156;SDS011;52745;49.794;18.258;2022-11-28T08:13:41;44.97;;;19.65;;
65156;SDS011;52745;49.794;18.258;2022-11-28T08:16:11;37.88;;;18.92;;
65156;SDS011;52745;49.794;18.258;2022-11-28T08:18:40;40.72;;;19.25;;
65156;SDS011;52745;49.794;18.258;2022-11-28T08:21:08;42.10;;;19.52;;
65156;SDS011;52745;49.794;18.258;2022-11-28T08:23:39;40.95;;;19.52;;
65156;SDS011;52745;49.794;18.258;2022-11-28T08:26:07;40.83;;;21.00;;
65156;SDS011;52745;49.794;18.258;2022-11-28T08:28:35;41.92;;;20.15;;
65156;SDS011;52745;49.794;18.258;2022-11-28T08:34:00;43.28;;;21.40;;
65156;SDS011;52745;49.794;18.258;2022-11-28T08:36:30;49.22;;;21.23;;
65156;SDS011;52745;49.794;18.258;2022-11-28T08:38:58;42.95;;;20.35;;
65156;SDS011;52745;49.794;18.258;2022-11-28T08:41:25;46.15;;;21.52;;
65156;SDS011;52745;49.794;18.258;2022-11-28T08:43:51;46.95;;;21.55;;
65156;SDS011;52745;49.794;18.258;2022-11-28T08:46:19;40.13;;;19.67;;
65156;SDS011;52745;49.794;18.258;2022-11-28T08:48:48;38.95;;;19.90;;
65156;SDS011;52745;49.794;18.258;2022-11-28T08:51:16;38.30;;;19.60;;
65156;SDS011;52745;49.794;18.258;2022-11-28T08:53:45;36.65;;;17.85;;
65156;SDS011;52745;49.794;18.258;2022-11-28T08:56:12;40.13;;;19.77;;
65156;SDS011;52745;49.794;18.258;2022-11-28T08:58:39;40.30;;;18.48;;
65156;SDS011;52745;49.794;18.258;2022-11-28T09:01:13;37.20;;;17.85;;
65156;SDS011;52745;49.794;18.258;2022-11-28T09:03:44;35.25;;;17.90;;
65156;SDS011;52745;49.794;18.258;2022-11-28T09:06:12;43.58;;;19.05;;
65156;SDS011;52745;49.794;18.258;2022-11-28T09:08:39;40.13;;;19.17;;
65156;SDS011;52745;49.794;18.258;2022-11-28T09:11:07;35.97;;;17.77;;
65156;SDS011;52745;49.794;18.258;2022-11-28T09:13:35;38.28;;;18.80;;
65156;SDS011;52745;49.794;18.258;2022-11-28T09:16:03;37.30;;;18.13;;
65156;SDS011;52745;49.794;18.258;2022-11-28T09:18:30;36.38;;;17.90;;
65156;SDS011;52745;49.794;18.258;2022-11-28T09:21:00;42.80;;;20.00;;
65156;SDS011;52745;49.794;18.258;2022-11-28T09:23:27;40.60;;;18.83;;
65156;SDS011;52745;49.794;18.258;2022-11-28T09:25:55;40.55;;;19.13;;
65156;SDS011;52745;49.794;18.258;2022-11-28T09:28:22;40.83;;;17.98;;
65156;SDS011;52745;49.794;18.258;2022-11-28T09:30:49;35.53;;;17.98;;
65156;SDS011;52745;49.794;18.258;2022-11-28T09:33:15;32.72;;;17.27;;
65156;SDS011;52745;49.794;18.258;2022-11-28T09:35:42;36.65;;;16.75;;
65156;SDS011;52745;49.794;18.258;2022-11-28T09:38:08;34.15;;;16.67;;
65156;SDS011;52745;49.794;18.258;2022-11-28T09:40:36;37.05;;;17.38;;
65156;SDS011;52745;49.794;18.258;2022-11-28T09:43:11;31.13;;;17.10;;
65156;SDS011;52745;49.794;18.258;2022-11-28T09:45:42;32.60;;;16.75;;
65156;SDS011;52745;49.794;18.258;2022-11-28T09:51:08;37.70;;;17.77;;
65156;SDS011;52745;49.794;18.258;2022-11-28T09:56:38;35.08;;;16.25;;
65156;SDS011;52745;49.794;18.258;2022-11-28T09:59:15;28.95;;;15.40;;
65156;SDS011;52745;49.794;18.258;2022-11-28T10:04:23;30.40;;;15.43;;
65156;SDS011;52745;49.794;18.258;2022-11-28T10:07:05;32.58;;;14.95;;
65156;SDS011;52745;49.794;18.258;2022-11-28T10:15:25;31.17;;;16.50;;
65156;SDS011;52745;49.794;18.258;2022-11-28T10:20:22;35.33;;;16.90;;
65156;SDS011;52745;49.794;18.258;2022-11-28T10:22:55;33.10;;;16.90;;
65156;SDS011;52745;49.794;18.258;2022-11-28T10:25:28;35.53;;;18.48;;
65156;SDS011;52745;49.794;18.258;2022-11-28T10:27:57;33.42;;;16.73;;
65156;SDS011;52745;49.794;18.258;2022-11-28T10:30:35;38.72;;;18.88;;
65156;SDS011;52745;49.794;18.258;2022-11-28T10:33:16;38.38;;;17.90;;
65156;SDS011;52745;49.794;18.258;2022-11-28T10:38:20;34.70;;;17.67;;
65156;SDS011;52745;49.794;18.258;2022-11-28T10:41:00;40.75;;;18.42;;
65156;SDS011;52745;49.794;18.258;2022-11-28T10:44:16;40.97;;;18.77;;
65156;SDS011;52745;49.794;18.258;2022-11-28T10:46:41;41.50;;;21.13;;
65156;SDS011;52745;49.794;18.258;2022-11-28T10:49:22;46.83;;;20.33;;
65156;SDS011;52745;49.794;18.258;2022-11-28T11:00:14;41.38;;;20.92;;
65156;SDS011;52745;49.794;18.258;2022-11-28T11:02:44;43.28;;;18.60;;
65156;SDS011;52745;49.794;18.258;2022-11-28T11:05:14;36.25;;;16.80;;
65156;SDS011;52745;49.794;18.258;2022-11-28T11:08:02;28.90;;;13.90;;
65156;SDS011;52745;49.794;18.258;2022-11-28T11:10:49;27.23;;;14.55;;
65156;SDS011;52745;49.794;18.258;2022-11-28T11:13:21;25.83;;;11.45;;
65156;SDS011;52745;49.794;18.258;2022-11-28T11:15:57;19.42;;;10.20;;
65156;SDS011;52745;49.794;18.258;2022-11-28T11:18:28;23.30;;;10.57;;
65156;SDS011;52745;49.794;18.258;2022-11-28T11:21:22;20.80;;;9.63;;
65156;SDS011;52745;49.794;18.258;2022-11-28T11:23:49;17.02;;;9.30;;
65156;SDS011;52745;49.794;18.258;2022-11-28T11:26:40;15.60;;;8.13;;
65156;SDS011;52745;49.794;18.258;2022-11-28T11:29:19;14.15;;;6.78;;
65156;SDS011;52745;49.794;18.258;2022-11-28T11:31:51;18.35;;;7.78;;
65156;SDS011;52745;49.794;18.258;2022-11-28T11:34:19;15.75;;;8.13;;
65156;SDS011;52745;49.794;18.258;2022-11-28T11:36:49;15.38;;;8.10;;
65156;SDS011;52745;49.794;18.258;2022-11-28T11:39:20;13.43;;;7.22;;
65156;SDS011;52745;49.794;18.258;2022-11-28T11:41:50;15.63;;;8.35;;
65156;SDS011;52745;49.794;18.258;2022-11-28T11:44:38;15.65;;;8.88;;
65156;SDS011;52745;49.794;18.258;2022-11-28T11:47:08;17.05;;;8.32;;
65156;SDS011;52745;49.794;18.258;2022-11-28T11:54:39;20.45;;;9.63;;
65156;SDS011;52745;49.794;18.258;2022-11-28T11:57:20;19.20;;;9.77;;
65156;SDS011;52745;49.794;18.258;2022-11-28T11:59:49;21.48;;;10.32;;
65156;SDS011;52745;49.794;18.258;2022-11-28T12:05:03;16.70;;;9.70;;
65156;SDS011;52745;49.794;18.258;2022-11-28T12:10:12;14.98;;;8.60;;
65156;SDS011;52745;49.794;18.258;2022-11-28T12:12:44;15.23;;;7.40;;
65156;SDS011;52745;49.794;18.258;2022-11-28T12:23:03;9.90;;;5.85;;
65156;SDS011;52745;49.794;18.258;2022-11-28T12:31:11;9.80;;;6.57;;
65156;SDS011;52745;49.794;18.258;2022-11-28T12:36:38;12.02;;;6.47;;
65156;SDS011;52745;49.794;18.258;2022-11-28T12:47:23;9.13;;;5.40;;
65156;SDS011;52745;49.794;18.258;2022-11-28T12:55:20;7.50;;;4.22;;
65156;SDS011;52745;49.794;18.258;2022-11-28T12:57:56;6.70;;;4.00;;
65156;SDS011;52745;49.794;18.258;2022-11-28T13:00:34;6.90;;;4.10;;
65156;SDS011;52745;49.794;18.258;2022-11-28T13:16:49;7.40;;;4.40;;
65156;SDS011;52745;49.794;18.258;2022-11-28T13:22:07;9.18;;;4.40;;
65156;SDS011;52745;49.794;18.258;2022-11-28T13:30:47;6.50;;;3.93;;
65156;SDS011;52745;49.794;18.258;2022-11-28T13:33:30;7.47;;;3.97;;
65156;SDS011;52745;49.794;18.258;2022-11-28T13:44:29;10.05;;;5.43;;
65156;SDS011;52745;49.794;18.258;2022-11-28T13:49:48;8.43;;;4.97;;
65156;SDS011;52745;49.794;18.258;2022-11-28T13:54:53;11.20;;;6.00;;
65156;SDS011;52745;49.794;18.258;2022-11-28T13:57:27;10.50;;;5.60;;
65156;SDS011;52745;49.794;18.258;2022-11-28T14:00:00;10.80;;;4.82;;
65156;SDS011;52745;49.794;18.258;2022-11-28T14:02:44;11.15;;;5.47;;
65156;SDS011;52745;49.794;18.258;2022-11-28T14:08:03;11.98;;;5.70;;
65156;SDS011;52745;49.794;18.258;2022-11-28T14:24:18;9.13;;;5.22;;
65156;SDS011;52745;49.794;18.258;2022-11-28T14:26:55;11.95;;;5.70;;
65156;SDS011;52745;49.794;18.258;2022-11-28T14:29:37;12.40;;;6.38;;
65156;SDS011;52745;49.794;18.258;2022-11-28T14:32:14;12.85;;;6.40;;
65156;SDS011;52745;49.794;18.258;2022-11-28T14:34:51;10.48;;;5.80;;
65156;SDS011;52745;49.794;18.258;2022-11-28T14:39:48;12.40;;;6.78;;
65156;SDS011;52745;49.794;18.258;2022-11-28T14:42:21;12.75;;;6.80;;
65156;SDS011;52745;49.794;18.258;2022-11-28T14:55:01;13.43;;;7.47;;
65156;SDS011;52745;49.794;18.258;2022-11-28T14:57:31;13.65;;;7.18;;
65156;SDS011;52745;49.794;18.258;2022-11-28T15:00:13;17.02;;;7.13;;
65156;SDS011;52745;49.794;18.258;2022-11-28T15:05:21;13.07;;;7.35;;
65156;SDS011;52745;49.794;18.258;2022-11-28T15:08:21;14.85;;;7.93;;
65156;SDS011;52745;49.794;18.258;2022-11-28T15:16:25;15.43;;;7.18;;
65156;SDS011;52745;49.794;18.258;2022-11-28T15:19:06;12.57;;;6.78;;
65156;SDS011;52745;49.794;18.258;2022-11-28T15:21:56;12.73;;;7.38;;
65156;SDS011;52745;49.794;18.258;2022-11-28T15:24:24;11.18;;;6.50;;
65156;SDS011;52745;49.794;18.258;2022-11-28T15:29:34;14.43;;;6.85;;
65156;SDS011;52745;49.794;18.258;2022-11-28T15:32:02;15.85;;;7.15;;
65156;SDS011;52745;49.794;18.258;2022-11-28T15:34:30;17.02;;;8.05;;
65156;SDS011;52745;49.794;18.258;2022-11-28T15:36:59;13.48;;;7.35;;
65156;SDS011;52745;49.794;18.258;2022-11-28T15:42:02;16.48;;;8.30;;
65156;SDS011;52745;49.794;18.258;2022-11-28T15:44:31;16.23;;;8.48;;
65156;SDS011;52745;49.794;18.258;2022-11-28T15:46:58;14.13;;;8.20;;
65156;SDS011;52745;49.794;18.258;2022-11-28T15:52:03;14.93;;;7.50;;
65156;SDS011;52745;49.794;18.258;2022-11-28T15:57:06;14.20;;;7.25;;
65156;SDS011;52745;49.794;18.258;2022-11-28T15:59:43;12.85;;;7.85;;
65156;SDS011;52745;49.794;18.258;2022-11-28T16:02:15;19.75;;;8.40;;
65156;SDS011;52745;49.794;18.258;2022-11-28T16:04:53;16.00;;;7.82;;
65156;SDS011;52745;49.794;18.258;2022-11-28T16:07:25;16.05;;;8.27;;
65156;SDS011;52745;49.794;18.258;2022-11-28T16:09:54;16.48;;;8.63;;
65156;SDS011;52745;49.794;18.258;2022-11-28T16:12:26;35.72;;;11.90;;
65156;SDS011;52745;49.794;18.258;2022-11-28T16:14:54;34.67;;;12.68;;
65156;SDS011;52745;49.794;18.258;2022-11-28T16:17:27;34.63;;;13.23;;
65156;SDS011;52745;49.794;18.258;2022-11-28T16:19:57;42.92;;;16.98;;
65156;SDS011;52745;49.794;18.258;2022-11-28T16:22:26;28.35;;;12.02;;
65156;SDS011;52745;49.794;18.258;2022-11-28T16:25:05;31.05;;;15.55;;
65156;SDS011;52745;49.794;18.258;2022-11-28T16:27:42;24.75;;;10.73;;
65156;SDS011;52745;49.794;18.258;2022-11-28T16:32:50;23.17;;;11.73;;
65156;SDS011;52745;49.794;18.258;2022-11-28T16:35:29;23.20;;;11.35;;
65156;SDS011;52745;49.794;18.258;2022-11-28T16:38:02;20.88;;;10.57;;
65156;SDS011;52745;49.794;18.258;2022-11-28T16:40:40;25.05;;;11.40;;
65156;SDS011;52745;49.794;18.258;2022-11-28T16:43:22;22.73;;;10.48;;
65156;SDS011;52745;49.794;18.258;2022-11-28T16:46:02;20.33;;;9.98;;
65156;SDS011;52745;49.794;18.258;2022-11-28T16:48:32;19.65;;;9.73;;
65156;SDS011;52745;49.794;18.258;2022-11-28T16:56:41;23.15;;;9.98;;
65156;SDS011;52745;49.794;18.258;2022-11-28T16:59:00;24.13;;;9.88;;
65156;SDS011;52745;49.794;18.258;2022-11-28T17:01:29;22.65;;;10.57;;
65156;SDS011;52745;49.794;18.258;2022-11-28T17:03:55;21.17;;;10.38;;
65156;SDS011;52745;49.794;18.258;2022-11-28T17:06:27;33.58;;;10.75;;
65156;SDS011;52745;49.794;18.258;2022-11-28T17:09:03;22.67;;;11.23;;
65156;SDS011;52745;49.794;18.258;2022-11-28T17:11:35;23.42;;;10.35;;
65156;SDS011;52745;49.794;18.258;2022-11-28T17:14:03;24.92;;;11.02;;
65156;SDS011;52745;49.794;18.258;2022-11-28T17:16:31;22.65;;;10.73;;
65156;SDS011;52745;49.794;18.258;2022-11-28T17:18:58;20.23;;;10.35;;
65156;SDS011;52745;49.794;18.258;2022-11-28T17:26:26;21.65;;;10.63;;
65156;SDS011;52745;49.794;18.258;2022-11-28T17:28:52;25.38;;;11.32;;
65156;SDS011;52745;49.794;18.258;2022-11-28T17:31:20;27.38;;;12.90;;
65156;SDS011;52745;49.794;18.258;2022-11-28T17:33:49;26.25;;;12.55;;
65156;SDS011;52745;49.794;18.258;2022-11-28T17:36:16;30.40;;;12.65;;
65156;SDS011;52745;49.794;18.258;2022-11-28T17:38:42;32.72;;;13.88;;
65156;SDS011;52745;49.794;18.258;2022-11-28T17:41:10;24.55;;;12.48;;
65156;SDS011;52745;49.794;18.258;2022-11-28T17:43:38;27.85;;;11.80;;
65156;SDS011;52745;49.794;18.258;2022-11-28T17:46:05;29.02;;;13.80;;
65156;SDS011;52745;49.794;18.258;2022-11-28T17:48:32;27.70;;;13.52;;
65156;SDS011;52745;49.794;18.258;2022-11-28T17:50:59;26.60;;;13.10;;
65156;SDS011;52745;49.794;18.258;2022-11-28T17:53:27;33.60;;;14.52;;
65156;SDS011;52745;49.794;18.258;2022-11-28T17:55:53;29.55;;;13.73;;
65156;SDS011;52745;49.794;18.258;2022-11-28T17:58:24;46.70;;;19.90;;
65156;SDS011;52745;49.794;18.258;2022-11-28T18:00:54;34.88;;;13.73;;
65156;SDS011;52745;49.794;18.258;2022-11-28T18:03:21;27.10;;;13.88;;
65156;SDS011;52745;49.794;18.258;2022-11-28T18:05:48;33.60;;;14.85;;
65156;SDS011;52745;49.794;18.258;2022-11-28T18:08:17;36.65;;;16.02;;
65156;SDS011;52745;49.794;18.258;2022-11-28T18:10:45;39.72;;;15.93;;
65156;SDS011;52745;49.794;18.258;2022-11-28T18:13:12;41.33;;;15.60;;
65156;SDS011;52745;49.794;18.258;2022-11-28T18:15:41;35.40;;;15.02;;
65156;SDS011;52745;49.794;18.258;2022-11-28T18:18:09;44.83;;;15.38;;
65156;SDS011;52745;49.794;18.258;2022-11-28T18:20:37;45.30;;;16.48;;
65156;SDS011;52745;49.794;18.258;2022-11-28T18:23:03;36.05;;;15.98;;
65156;SDS011;52745;49.794;18.258;2022-11-28T18:25:30;35.42;;;15.88;;
65156;SDS011;52745;49.794;18.258;2022-11-28T18:27:57;36.33;;;16.20;;